SCEA weather

El Amarillo Airport
Chaiten, Los Lagos Region, Chile

Public forecast

Using degrees Celsius for public forecast. Weather courtesy of forecast.io.

Closest aviation weather report (METAR) to El Amarillo Airport

Closest report is Chaitén Airport, 10.7 nm (19.7 km) WNW. Retrieved 2019/10/16 11:25 UTC (15 minutes ago):

SCTN 161125Z 08004KT 050V120 9999 SCT030 BKN035 09/09 Q1017

Closest aviation forecast (TAF) to El Amarillo Airport

Forecast is more than 12 hours old.

Closest forecast is Chaitén Airport, 10.7 nm (19.7 km) WNW. Retrieved 2018/09/16 12:33 UTC (1 year ago):

TAF SPJL 161124Z 1612/1712 VRB04KT 9999 FEW020LVA0551 161131 GG KWBCYMYX MPZZMAMX 161130 SCSCYZYX SPCH03 SCTN 161130 SPECI SCTN 161130Z 36020G31KT +RA SCT013 OVC017 11/09 Q1009